Terminal Aerodrome Forecast
Issued by NWS Amarillo, TX

Home | Current Version | Previous Version | Text Only | Print | Product List | Glossary On
Versions: 1 2 3 4 5 6 7 8 9 10 11 12 13 14 15 16 17 18 19 20 21 22 23 24
000
FTUS44 KAMA 282300
TAFAMA
TAF
KAMA 282324Z 0100/0124 17010KT P6SM OVC010
     FM010300 15010KT 6SM BR OVC007
     FM010600 15010KT 2SM BR OVC004
     FM010800 15010KT 3/4SM BR OVC003
     FM011500 17008KT 2SM BR OVC005
     FM011900 15008KT P6SM OVC010=

USA.gov is the U.S. government's official web portal to all federal, state and local government web resources and services.